sensor_id;sensor_type;location;lat;lon;timestamp;P1;durP1;ratioP1;P2;durP2;ratioP2
48578;SDS011;34357;51.948;6.132;2022-12-07T00:03:47;30.75;;;21.25;;
48578;SDS011;34357;51.948;6.132;2022-12-07T00:06:30;31.77;;;19.80;;
48578;SDS011;34357;51.948;6.132;2022-12-07T00:09:47;29.52;;;19.17;;
48578;SDS011;34357;51.948;6.132;2022-12-07T00:12:18;27.65;;;17.85;;
48578;SDS011;34357;51.948;6.132;2022-12-07T00:14:53;23.65;;;17.45;;
48578;SDS011;34357;51.948;6.132;2022-12-07T00:17:39;26.58;;;17.63;;
48578;SDS011;34357;51.948;6.132;2022-12-07T00:20:50;23.75;;;16.15;;
48578;SDS011;34357;51.948;6.132;2022-12-07T00:23:28;24.95;;;16.00;;
48578;SDS011;34357;51.948;6.132;2022-12-07T00:26:23;23.05;;;16.05;;
48578;SDS011;34357;51.948;6.132;2022-12-07T00:29:14;19.83;;;14.40;;
48578;SDS011;34357;51.948;6.132;2022-12-07T00:32:04;22.83;;;14.88;;
48578;SDS011;34357;51.948;6.132;2022-12-07T00:34:53;19.95;;;13.95;;
48578;SDS011;34357;51.948;6.132;2022-12-07T00:37:24;20.30;;;12.60;;
48578;SDS011;34357;51.948;6.132;2022-12-07T00:40:00;17.70;;;12.02;;
48578;SDS011;34357;51.948;6.132;2022-12-07T00:42:40;17.92;;;12.15;;
48578;SDS011;34357;51.948;6.132;2022-12-07T00:45:33;15.20;;;10.82;;
48578;SDS011;34357;51.948;6.132;2022-12-07T00:48:07;17.60;;;11.30;;
48578;SDS011;34357;51.948;6.132;2022-12-07T00:50:55;16.30;;;10.43;;
48578;SDS011;34357;51.948;6.132;2022-12-07T00:53:26;16.08;;;11.48;;
48578;SDS011;34357;51.948;6.132;2022-12-07T00:56:13;16.33;;;11.20;;
48578;SDS011;34357;51.948;6.132;2022-12-07T00:58:46;14.70;;;10.75;;
48578;SDS011;34357;51.948;6.132;2022-12-07T01:01:25;18.77;;;10.55;;
48578;SDS011;34357;51.948;6.132;2022-12-07T01:04:04;20.48;;;12.07;;
48578;SDS011;34357;51.948;6.132;2022-12-07T01:06:35;16.38;;;11.50;;
48578;SDS011;34357;51.948;6.132;2022-12-07T01:09:12;18.98;;;12.30;;
48578;SDS011;34357;51.948;6.132;2022-12-07T01:11:50;19.08;;;12.80;;
48578;SDS011;34357;51.948;6.132;2022-12-07T01:14:28;18.25;;;13.02;;
48578;SDS011;34357;51.948;6.132;2022-12-07T01:17:04;20.98;;;13.68;;
48578;SDS011;34357;51.948;6.132;2022-12-07T01:19:54;18.35;;;13.40;;
48578;SDS011;34357;51.948;6.132;2022-12-07T01:22:22;17.35;;;13.23;;
48578;SDS011;34357;51.948;6.132;2022-12-07T01:24:53;20.10;;;14.10;;
48578;SDS011;34357;51.948;6.132;2022-12-07T01:27:59;25.38;;;13.23;;
48578;SDS011;34357;51.948;6.132;2022-12-07T01:30:30;19.15;;;13.30;;
48578;SDS011;34357;51.948;6.132;2022-12-07T01:33:11;21.88;;;14.65;;
48578;SDS011;34357;51.948;6.132;2022-12-07T01:35:41;22.17;;;14.63;;
48578;SDS011;34357;51.948;6.132;2022-12-07T01:38:09;24.33;;;13.80;;
48578;SDS011;34357;51.948;6.132;2022-12-07T01:40:52;27.58;;;14.68;;
48578;SDS011;34357;51.948;6.132;2022-12-07T01:43:19;23.40;;;15.80;;
48578;SDS011;34357;51.948;6.132;2022-12-07T01:45:48;25.38;;;15.48;;
48578;SDS011;34357;51.948;6.132;2022-12-07T01:48:34;22.50;;;15.25;;
48578;SDS011;34357;51.948;6.132;2022-12-07T01:51:11;24.65;;;16.30;;
48578;SDS011;34357;51.948;6.132;2022-12-07T01:53:42;26.75;;;15.43;;
48578;SDS011;34357;51.948;6.132;2022-12-07T01:56:17;29.50;;;15.82;;
48578;SDS011;34357;51.948;6.132;2022-12-07T01:58:55;24.25;;;16.13;;
48578;SDS011;34357;51.948;6.132;2022-12-07T02:01:32;21.40;;;16.35;;
48578;SDS011;34357;51.948;6.132;2022-12-07T02:04:06;21.48;;;16.23;;
48578;SDS011;34357;51.948;6.132;2022-12-07T02:06:34;24.48;;;16.77;;
48578;SDS011;34357;51.948;6.132;2022-12-07T02:09:13;25.88;;;16.88;;
48578;SDS011;34357;51.948;6.132;2022-12-07T02:11:45;27.13;;;16.95;;
48578;SDS011;34357;51.948;6.132;2022-12-07T02:14:20;22.55;;;17.13;;
48578;SDS011;34357;51.948;6.132;2022-12-07T02:23:23;26.65;;;17.48;;
48578;SDS011;34357;51.948;6.132;2022-12-07T02:31:44;25.58;;;17.63;;
48578;SDS011;34357;51.948;6.132;2022-12-07T02:37:21;28.42;;;17.95;;
48578;SDS011;34357;51.948;6.132;2022-12-07T02:40:18;26.23;;;17.35;;
48578;SDS011;34357;51.948;6.132;2022-12-07T02:43:12;30.80;;;17.65;;
48578;SDS011;34357;51.948;6.132;2022-12-07T02:45:43;25.88;;;17.48;;
48578;SDS011;34357;51.948;6.132;2022-12-07T02:48:11;25.13;;;17.33;;
48578;SDS011;34357;51.948;6.132;2022-12-07T02:50:47;21.70;;;17.02;;
48578;SDS011;34357;51.948;6.132;2022-12-07T03:04:25;24.83;;;16.35;;
48578;SDS011;34357;51.948;6.132;2022-12-07T03:07:15;24.05;;;16.00;;
48578;SDS011;34357;51.948;6.132;2022-12-07T03:10:03;22.50;;;15.77;;
48578;SDS011;34357;51.948;6.132;2022-12-07T03:12:44;28.42;;;16.50;;
48578;SDS011;34357;51.948;6.132;2022-12-07T03:15:32;26.52;;;16.88;;
48578;SDS011;34357;51.948;6.132;2022-12-07T03:17:58;26.27;;;15.40;;
48578;SDS011;34357;51.948;6.132;2022-12-07T03:20:28;25.20;;;16.00;;
48578;SDS011;34357;51.948;6.132;2022-12-07T03:22:54;21.02;;;14.43;;
48578;SDS011;34357;51.948;6.132;2022-12-07T03:25:24;23.55;;;14.20;;
48578;SDS011;34357;51.948;6.132;2022-12-07T03:27:56;26.50;;;15.00;;
48578;SDS011;34357;51.948;6.132;2022-12-07T03:30:29;27.20;;;15.13;;
48578;SDS011;34357;51.948;6.132;2022-12-07T03:39:39;23.40;;;13.00;;
48578;SDS011;34357;51.948;6.132;2022-12-07T03:42:13;21.15;;;12.98;;
48578;SDS011;34357;51.948;6.132;2022-12-07T03:44:44;22.67;;;13.05;;
48578;SDS011;34357;51.948;6.132;2022-12-07T03:47:16;20.67;;;13.00;;
48578;SDS011;34357;51.948;6.132;2022-12-07T03:50:11;22.85;;;13.15;;
48578;SDS011;34357;51.948;6.132;2022-12-07T03:55:31;18.40;;;11.50;;
48578;SDS011;34357;51.948;6.132;2022-12-07T03:58:06;23.58;;;12.50;;
48578;SDS011;34357;51.948;6.132;2022-12-07T04:00:38;20.85;;;11.30;;
48578;SDS011;34357;51.948;6.132;2022-12-07T04:03:08;21.17;;;12.48;;
48578;SDS011;34357;51.948;6.132;2022-12-07T04:05:38;19.65;;;10.68;;
48578;SDS011;34357;51.948;6.132;2022-12-07T04:08:06;22.98;;;11.50;;
48578;SDS011;34357;51.948;6.132;2022-12-07T04:10:35;23.85;;;11.23;;
48578;SDS011;34357;51.948;6.132;2022-12-07T04:13:01;21.92;;;10.73;;
48578;SDS011;34357;51.948;6.132;2022-12-07T04:15:27;17.17;;;10.38;;
48578;SDS011;34357;51.948;6.132;2022-12-07T04:17:53;18.95;;;11.05;;
48578;SDS011;34357;51.948;6.132;2022-12-07T04:23:52;17.88;;;10.73;;
48578;SDS011;34357;51.948;6.132;2022-12-07T04:26:18;18.45;;;10.27;;
48578;SDS011;34357;51.948;6.132;2022-12-07T04:28:48;22.80;;;10.88;;
48578;SDS011;34357;51.948;6.132;2022-12-07T04:31:32;22.23;;;10.40;;
48578;SDS011;34357;51.948;6.132;2022-12-07T04:34:16;22.42;;;10.45;;
48578;SDS011;34357;51.948;6.132;2022-12-07T04:36:43;17.52;;;10.07;;
48578;SDS011;34357;51.948;6.132;2022-12-07T04:39:22;21.83;;;9.70;;
48578;SDS011;34357;51.948;6.132;2022-12-07T04:41:50;23.00;;;10.32;;
48578;SDS011;34357;51.948;6.132;2022-12-07T04:44:27;17.38;;;9.48;;
48578;SDS011;34357;51.948;6.132;2022-12-07T04:46:54;17.80;;;9.55;;
48578;SDS011;34357;51.948;6.132;2022-12-07T04:49:23;17.90;;;9.10;;
48578;SDS011;34357;51.948;6.132;2022-12-07T04:51:50;14.60;;;9.07;;
48578;SDS011;34357;51.948;6.132;2022-12-07T04:54:21;19.85;;;9.15;;
48578;SDS011;34357;51.948;6.132;2022-12-07T04:56:47;17.30;;;9.48;;
48578;SDS011;34357;51.948;6.132;2022-12-07T04:59:15;12.43;;;8.30;;
48578;SDS011;34357;51.948;6.132;2022-12-07T05:01:49;15.45;;;8.75;;
48578;SDS011;34357;51.948;6.132;2022-12-07T05:04:14;14.73;;;8.70;;
48578;SDS011;34357;51.948;6.132;2022-12-07T05:06:41;18.77;;;8.98;;
48578;SDS011;34357;51.948;6.132;2022-12-07T05:09:10;18.48;;;9.23;;
48578;SDS011;34357;51.948;6.132;2022-12-07T05:11:41;19.42;;;8.95;;
48578;SDS011;34357;51.948;6.132;2022-12-07T05:14:12;17.55;;;8.80;;
48578;SDS011;34357;51.948;6.132;2022-12-07T05:16:44;15.05;;;8.70;;
48578;SDS011;34357;51.948;6.132;2022-12-07T05:19:11;16.52;;;8.32;;
48578;SDS011;34357;51.948;6.132;2022-12-07T05:21:37;14.00;;;8.85;;
48578;SDS011;34357;51.948;6.132;2022-12-07T05:24:14;20.45;;;8.85;;
48578;SDS011;34357;51.948;6.132;2022-12-07T05:26:41;13.63;;;8.18;;
48578;SDS011;34357;51.948;6.132;2022-12-07T05:29:11;19.02;;;9.73;;
48578;SDS011;34357;51.948;6.132;2022-12-07T05:31:38;23.00;;;8.88;;
48578;SDS011;34357;51.948;6.132;2022-12-07T05:34:03;16.67;;;8.20;;
48578;SDS011;34357;51.948;6.132;2022-12-07T05:40:18;19.55;;;8.85;;
48578;SDS011;34357;51.948;6.132;2022-12-07T05:42:51;13.38;;;8.77;;
48578;SDS011;34357;51.948;6.132;2022-12-07T05:45:17;21.35;;;8.65;;
48578;SDS011;34357;51.948;6.132;2022-12-07T05:47:42;14.25;;;7.88;;
48578;SDS011;34357;51.948;6.132;2022-12-07T05:50:08;14.10;;;8.38;;
48578;SDS011;34357;51.948;6.132;2022-12-07T05:52:36;16.10;;;8.60;;
48578;SDS011;34357;51.948;6.132;2022-12-07T05:55:04;18.27;;;8.80;;
48578;SDS011;34357;51.948;6.132;2022-12-07T05:57:32;19.58;;;9.20;;
48578;SDS011;34357;51.948;6.132;2022-12-07T06:00:08;20.52;;;8.77;;
48578;SDS011;34357;51.948;6.132;2022-12-07T06:02:37;24.30;;;9.52;;
48578;SDS011;34357;51.948;6.132;2022-12-07T06:05:09;18.15;;;9.20;;
48578;SDS011;34357;51.948;6.132;2022-12-07T06:07:34;16.98;;;8.18;;
48578;SDS011;34357;51.948;6.132;2022-12-07T06:10:03;17.73;;;8.80;;
48578;SDS011;34357;51.948;6.132;2022-12-07T06:12:32;22.08;;;9.00;;
48578;SDS011;34357;51.948;6.132;2022-12-07T06:15:15;15.48;;;8.50;;
48578;SDS011;34357;51.948;6.132;2022-12-07T06:17:41;15.70;;;8.77;;
48578;SDS011;34357;51.948;6.132;2022-12-07T06:20:09;18.17;;;8.52;;
48578;SDS011;34357;51.948;6.132;2022-12-07T06:22:35;19.38;;;8.57;;
48578;SDS011;34357;51.948;6.132;2022-12-07T06:25:01;14.15;;;8.02;;
48578;SDS011;34357;51.948;6.132;2022-12-07T06:27:29;19.98;;;8.35;;
48578;SDS011;34357;51.948;6.132;2022-12-07T06:29:54;14.00;;;8.27;;
48578;SDS011;34357;51.948;6.132;2022-12-07T06:32:20;18.33;;;8.38;;
48578;SDS011;34357;51.948;6.132;2022-12-07T06:34:46;16.75;;;7.55;;
48578;SDS011;34357;51.948;6.132;2022-12-07T06:37:14;15.93;;;7.80;;
48578;SDS011;34357;51.948;6.132;2022-12-07T06:39:42;18.98;;;8.10;;
48578;SDS011;34357;51.948;6.132;2022-12-07T06:42:14;16.38;;;7.65;;
48578;SDS011;34357;51.948;6.132;2022-12-07T06:44:39;17.17;;;7.40;;
48578;SDS011;34357;51.948;6.132;2022-12-07T06:47:14;19.50;;;8.63;;
48578;SDS011;34357;51.948;6.132;2022-12-07T06:49:40;13.95;;;7.38;;
48578;SDS011;34357;51.948;6.132;2022-12-07T06:52:08;13.63;;;7.68;;
48578;SDS011;34357;51.948;6.132;2022-12-07T06:54:49;16.48;;;7.45;;
48578;SDS011;34357;51.948;6.132;2022-12-07T06:57:25;15.80;;;8.27;;
48578;SDS011;34357;51.948;6.132;2022-12-07T06:59:56;17.60;;;8.63;;
48578;SDS011;34357;51.948;6.132;2022-12-07T07:02:22;17.63;;;8.43;;
48578;SDS011;34357;51.948;6.132;2022-12-07T07:04:50;15.52;;;7.93;;
48578;SDS011;34357;51.948;6.132;2022-12-07T07:07:20;23.40;;;8.50;;
48578;SDS011;34357;51.948;6.132;2022-12-07T07:09:47;13.07;;;8.05;;
48578;SDS011;34357;51.948;6.132;2022-12-07T07:12:16;15.13;;;7.90;;
48578;SDS011;34357;51.948;6.132;2022-12-07T07:14:47;15.30;;;7.50;;
48578;SDS011;34357;51.948;6.132;2022-12-07T07:17:16;17.30;;;7.18;;
48578;SDS011;34357;51.948;6.132;2022-12-07T07:19:55;20.38;;;7.40;;
48578;SDS011;34357;51.948;6.132;2022-12-07T07:22:23;18.13;;;7.47;;
48578;SDS011;34357;51.948;6.132;2022-12-07T07:24:59;18.02;;;6.93;;
48578;SDS011;34357;51.948;6.132;2022-12-07T07:27:27;15.20;;;7.13;;
48578;SDS011;34357;51.948;6.132;2022-12-07T07:29:53;19.15;;;8.18;;
48578;SDS011;34357;51.948;6.132;2022-12-07T07:32:39;14.23;;;6.90;;
48578;SDS011;34357;51.948;6.132;2022-12-07T07:35:12;13.00;;;7.23;;
48578;SDS011;34357;51.948;6.132;2022-12-07T07:37:41;14.15;;;6.00;;
48578;SDS011;34357;51.948;6.132;2022-12-07T07:40:09;21.23;;;6.40;;
48578;SDS011;34357;51.948;6.132;2022-12-07T07:42:46;18.80;;;6.57;;
48578;SDS011;34357;51.948;6.132;2022-12-07T07:45:15;13.95;;;6.30;;
48578;SDS011;34357;51.948;6.132;2022-12-07T07:47:48;16.27;;;6.57;;
48578;SDS011;34357;51.948;6.132;2022-12-07T07:50:34;11.75;;;6.35;;
48578;SDS011;34357;51.948;6.132;2022-12-07T07:53:16;18.83;;;6.10;;
48578;SDS011;34357;51.948;6.132;2022-12-07T07:59:30;18.40;;;6.28;;
48578;SDS011;34357;51.948;6.132;2022-12-07T08:02:05;18.85;;;5.65;;
48578;SDS011;34357;51.948;6.132;2022-12-07T08:05:36;13.50;;;5.63;;
48578;SDS011;34357;51.948;6.132;2022-12-07T08:11:24;13.90;;;4.88;;
48578;SDS011;34357;51.948;6.132;2022-12-07T08:13:53;21.17;;;7.47;;
48578;SDS011;34357;51.948;6.132;2022-12-07T08:16:18;19.08;;;5.65;;
48578;SDS011;34357;51.948;6.132;2022-12-07T08:22:09;11.73;;;4.68;;
48578;SDS011;34357;51.948;6.132;2022-12-07T08:24:54;16.33;;;5.00;;
48578;SDS011;34357;51.948;6.132;2022-12-07T08:27:24;15.60;;;4.93;;
48578;SDS011;34357;51.948;6.132;2022-12-07T08:29:52;11.60;;;4.95;;
48578;SDS011;34357;51.948;6.132;2022-12-07T08:32:26;14.85;;;6.63;;
48578;SDS011;34357;51.948;6.132;2022-12-07T08:34:57;14.38;;;5.60;;
48578;SDS011;34357;51.948;6.132;2022-12-07T08:37:25;13.48;;;4.80;;
48578;SDS011;34357;51.948;6.132;2022-12-07T08:39:56;10.37;;;4.80;;
48578;SDS011;34357;51.948;6.132;2022-12-07T08:42:50;16.48;;;5.07;;
48578;SDS011;34357;51.948;6.132;2022-12-07T08:45:17;12.30;;;4.95;;
48578;SDS011;34357;51.948;6.132;2022-12-07T08:48:00;13.32;;;5.28;;
48578;SDS011;34357;51.948;6.132;2022-12-07T08:50:33;15.85;;;5.55;;
48578;SDS011;34357;51.948;6.132;2022-12-07T08:53:10;16.13;;;4.60;;
48578;SDS011;34357;51.948;6.132;2022-12-07T08:55:46;17.42;;;5.20;;
48578;SDS011;34357;51.948;6.132;2022-12-07T08:58:50;15.90;;;4.18;;
48578;SDS011;34357;51.948;6.132;2022-12-07T09:01:38;12.48;;;4.68;;
48578;SDS011;34357;51.948;6.132;2022-12-07T09:04:15;12.68;;;4.80;;
48578;SDS011;34357;51.948;6.132;2022-12-07T09:06:46;11.23;;;4.55;;
48578;SDS011;34357;51.948;6.132;2022-12-07T09:09:12;13.07;;;5.85;;
48578;SDS011;34357;51.948;6.132;2022-12-07T09:11:44;18.75;;;4.80;;
48578;SDS011;34357;51.948;6.132;2022-12-07T09:17:34;11.73;;;4.72;;
48578;SDS011;34357;51.948;6.132;2022-12-07T09:20:04;12.02;;;3.95;;
48578;SDS011;34357;51.948;6.132;2022-12-07T09:22:41;13.82;;;4.70;;
48578;SDS011;34357;51.948;6.132;2022-12-07T09:25:17;19.52;;;5.18;;
48578;SDS011;34357;51.948;6.132;2022-12-07T09:27:58;12.25;;;4.20;;
48578;SDS011;34357;51.948;6.132;2022-12-07T09:30:37;14.95;;;4.28;;
48578;SDS011;34357;51.948;6.132;2022-12-07T09:33:38;10.10;;;3.72;;
48578;SDS011;34357;51.948;6.132;2022-12-07T09:39:31;12.98;;;3.83;;
48578;SDS011;34357;51.948;6.132;2022-12-07T09:45:33;13.60;;;4.05;;
48578;SDS011;34357;51.948;6.132;2022-12-07T09:52:54;21.40;;;3.42;;
48578;SDS011;34357;51.948;6.132;2022-12-07T09:55:41;14.32;;;3.67;;
48578;SDS011;34357;51.948;6.132;2022-12-07T09:58:34;10.65;;;3.40;;
48578;SDS011;34357;51.948;6.132;2022-12-07T10:06:37;15.70;;;3.47;;
48578;SDS011;34357;51.948;6.132;2022-12-07T10:09:22;11.20;;;2.90;;
48578;SDS011;34357;51.948;6.132;2022-12-07T10:12:16;10.07;;;3.25;;
48578;SDS011;34357;51.948;6.132;2022-12-07T10:22:35;12.10;;;2.85;;
48578;SDS011;34357;51.948;6.132;2022-12-07T10:25:18;10.95;;;3.00;;
48578;SDS011;34357;51.948;6.132;2022-12-07T10:31:18;10.43;;;3.00;;
48578;SDS011;34357;51.948;6.132;2022-12-07T10:33:55;8.45;;;2.33;;
48578;SDS011;34357;51.948;6.132;2022-12-07T10:36:46;16.38;;;4.13;;
48578;SDS011;34357;51.948;6.132;2022-12-07T10:39:21;13.48;;;3.10;;
48578;SDS011;34357;51.948;6.132;2022-12-07T10:42:03;13.60;;;3.15;;
48578;SDS011;34357;51.948;6.132;2022-12-07T10:44:32;8.30;;;2.92;;
48578;SDS011;34357;51.948;6.132;2022-12-07T11:07:39;17.35;;;4.18;;
48578;SDS011;34357;51.948;6.132;2022-12-07T11:10:19;8.32;;;1.85;;
48578;SDS011;34357;51.948;6.132;2022-12-07T11:15:53;7.63;;;2.25;;
48578;SDS011;34357;51.948;6.132;2022-12-07T11:22:58;11.52;;;2.42;;
48578;SDS011;34357;51.948;6.132;2022-12-07T11:32:43;14.43;;;2.50;;
48578;SDS011;34357;51.948;6.132;2022-12-07T11:41:46;11.80;;;2.63;;
48578;SDS011;34357;51.948;6.132;2022-12-07T11:44:26;13.52;;;3.05;;
48578;SDS011;34357;51.948;6.132;2022-12-07T11:50:57;14.55;;;3.65;;
48578;SDS011;34357;51.948;6.132;2022-12-07T11:53:48;6.32;;;1.88;;
48578;SDS011;34357;51.948;6.132;2022-12-07T12:00:02;10.00;;;2.20;;
48578;SDS011;34357;51.948;6.132;2022-12-07T12:03:07;9.48;;;2.08;;
48578;SDS011;34357;51.948;6.132;2022-12-07T12:05:36;13.27;;;2.25;;
48578;SDS011;34357;51.948;6.132;2022-12-07T12:08:25;12.60;;;2.00;;
48578;SDS011;34357;51.948;6.132;2022-12-07T12:21:11;9.93;;;2.45;;
48578;SDS011;34357;51.948;6.132;2022-12-07T12:23:47;6.47;;;2.25;;
48578;SDS011;34357;51.948;6.132;2022-12-07T12:35:34;8.57;;;2.10;;
48578;SDS011;34357;51.948;6.132;2022-12-07T12:47:39;15.45;;;2.58;;
48578;SDS011;34357;51.948;6.132;2022-12-07T12:56:25;7.38;;;2.17;;
48578;SDS011;34357;51.948;6.132;2022-12-07T13:00:01;8.25;;;1.95;;
48578;SDS011;34357;51.948;6.132;2022-12-07T13:08:59;11.20;;;2.38;;
48578;SDS011;34357;51.948;6.132;2022-12-07T13:11:29;16.50;;;2.25;;
48578;SDS011;34357;51.948;6.132;2022-12-07T13:20:00;12.05;;;2.00;;
48578;SDS011;34357;51.948;6.132;2022-12-07T13:27:54;11.27;;;1.95;;
48578;SDS011;34357;51.948;6.132;2022-12-07T13:30:25;9.27;;;2.58;;
48578;SDS011;34357;51.948;6.132;2022-12-07T13:32:58;7.43;;;1.85;;
48578;SDS011;34357;51.948;6.132;2022-12-07T13:35:42;10.35;;;1.70;;
48578;SDS011;34357;51.948;6.132;2022-12-07T13:38:25;8.55;;;1.90;;
48578;SDS011;34357;51.948;6.132;2022-12-07T13:40:59;10.88;;;2.40;;
48578;SDS011;34357;51.948;6.132;2022-12-07T13:43:53;13.15;;;3.58;;
48578;SDS011;34357;51.948;6.132;2022-12-07T13:49:22;14.15;;;4.50;;
48578;SDS011;34357;51.948;6.132;2022-12-07T13:55:45;12.00;;;3.75;;
48578;SDS011;34357;51.948;6.132;2022-12-07T13:58:17;13.52;;;3.60;;
48578;SDS011;34357;51.948;6.132;2022-12-07T14:00:46;9.55;;;2.38;;
48578;SDS011;34357;51.948;6.132;2022-12-07T14:05:43;8.50;;;2.20;;
48578;SDS011;34357;51.948;6.132;2022-12-07T14:14:28;9.13;;;1.80;;
48578;SDS011;34357;51.948;6.132;2022-12-07T14:17:15;10.23;;;1.95;;
48578;SDS011;34357;51.948;6.132;2022-12-07T14:22:53;10.90;;;2.63;;
48578;SDS011;34357;51.948;6.132;2022-12-07T14:25:26;14.13;;;2.33;;
48578;SDS011;34357;51.948;6.132;2022-12-07T14:27:53;9.32;;;2.17;;
48578;SDS011;34357;51.948;6.132;2022-12-07T14:30:28;7.47;;;2.17;;
48578;SDS011;34357;51.948;6.132;2022-12-07T16:47:16;14.35;;;5.28;;
48578;SDS011;34357;51.948;6.132;2022-12-07T16:52:47;15.27;;;4.70;;
48578;SDS011;34357;51.948;6.132;2022-12-07T16:55:13;15.63;;;5.43;;
48578;SDS011;34357;51.948;6.132;2022-12-07T17:01:46;11.50;;;4.72;;
48578;SDS011;34357;51.948;6.132;2022-12-07T17:08:08;8.88;;;4.88;;
48578;SDS011;34357;51.948;6.132;2022-12-07T17:10:37;10.18;;;4.25;;
48578;SDS011;34357;51.948;6.132;2022-12-07T20:16:14;12.85;;;6.63;;
48578;SDS011;34357;51.948;6.132;2022-12-07T20:18:40;11.52;;;7.28;;
48578;SDS011;34357;51.948;6.132;2022-12-07T20:21:09;16.05;;;8.00;;
48578;SDS011;34357;51.948;6.132;2022-12-07T20:30:37;12.07;;;7.95;;
48578;SDS011;34357;51.948;6.132;2022-12-07T20:34:14;15.90;;;8.48;;
48578;SDS011;34357;51.948;6.132;2022-12-07T20:36:43;15.05;;;8.70;;
48578;SDS011;34357;51.948;6.132;2022-12-07T20:39:21;13.25;;;8.80;;
48578;SDS011;34357;51.948;6.132;2022-12-07T20:45:47;17.10;;;10.07;;
48578;SDS011;34357;51.948;6.132;2022-12-07T20:48:14;15.75;;;10.23;;
48578;SDS011;34357;51.948;6.132;2022-12-07T20:51:24;15.00;;;10.48;;
48578;SDS011;34357;51.948;6.132;2022-12-07T20:54:09;22.00;;;11.48;;
48578;SDS011;34357;51.948;6.132;2022-12-07T20:59:07;18.05;;;12.77;;
48578;SDS011;34357;51.948;6.132;2022-12-07T21:01:57;17.73;;;12.93;;
48578;SDS011;34357;51.948;6.132;2022-12-07T21:11:24;21.73;;;14.20;;
48578;SDS011;34357;51.948;6.132;2022-12-07T21:13:51;19.23;;;14.65;;
48578;SDS011;34357;51.948;6.132;2022-12-07T21:16:18;27.08;;;14.95;;
48578;SDS011;34357;51.948;6.132;2022-12-07T21:18:47;21.45;;;15.13;;
48578;SDS011;34357;51.948;6.132;2022-12-07T21:21:14;27.92;;;17.30;;
48578;SDS011;34357;51.948;6.132;2022-12-07T21:24:37;22.33;;;16.05;;
48578;SDS011;34357;51.948;6.132;2022-12-07T21:30:55;24.20;;;16.02;;
48578;SDS011;34357;51.948;6.132;2022-12-07T21:39:40;20.27;;;16.23;;
48578;SDS011;34357;51.948;6.132;2022-12-07T21:42:08;22.63;;;15.60;;
48578;SDS011;34357;51.948;6.132;2022-12-07T21:44:52;25.48;;;15.68;;
48578;SDS011;34357;51.948;6.132;2022-12-07T21:57:35;24.48;;;13.60;;
48578;SDS011;34357;51.948;6.132;2022-12-07T22:00:03;18.05;;;12.70;;
48578;SDS011;34357;51.948;6.132;2022-12-07T22:02:36;20.58;;;12.85;;
48578;SDS011;34357;51.948;6.132;2022-12-07T22:05:19;15.35;;;13.15;;
48578;SDS011;34357;51.948;6.132;2022-12-07T22:07:45;17.38;;;12.70;;
48578;SDS011;34357;51.948;6.132;2022-12-07T22:14:00;18.40;;;13.05;;
48578;SDS011;34357;51.948;6.132;2022-12-07T22:31:27;18.27;;;13.02;;
48578;SDS011;34357;51.948;6.132;2022-12-07T22:37:22;18.13;;;13.20;;
48578;SDS011;34357;51.948;6.132;2022-12-07T22:40:00;24.50;;;14.63;;
48578;SDS011;34357;51.948;6.132;2022-12-07T22:42:33;28.50;;;15.27;;
48578;SDS011;34357;51.948;6.132;2022-12-07T22:45:52;20.48;;;15.32;;
48578;SDS011;34357;51.948;6.132;2022-12-07T22:48:30;25.55;;;15.70;;
48578;SDS011;34357;51.948;6.132;2022-12-07T22:51:02;24.25;;;15.70;;
48578;SDS011;34357;51.948;6.132;2022-12-07T22:53:35;24.45;;;15.32;;
48578;SDS011;34357;51.948;6.132;2022-12-07T22:56:01;24.88;;;17.10;;
48578;SDS011;34357;51.948;6.132;2022-12-07T22:58:27;26.00;;;17.67;;
48578;SDS011;34357;51.948;6.132;2022-12-07T23:00:58;27.80;;;17.30;;
48578;SDS011;34357;51.948;6.132;2022-12-07T23:03:28;25.42;;;17.65;;
48578;SDS011;34357;51.948;6.132;2022-12-07T23:05:54;28.05;;;19.17;;
48578;SDS011;34357;51.948;6.132;2022-12-07T23:08:23;26.25;;;18.73;;
48578;SDS011;34357;51.948;6.132;2022-12-07T23:10:49;28.30;;;19.67;;
48578;SDS011;34357;51.948;6.132;2022-12-07T23:20:55;31.67;;;21.27;;
48578;SDS011;34357;51.948;6.132;2022-12-07T23:23:31;32.47;;;21.13;;
48578;SDS011;34357;51.948;6.132;2022-12-07T23:26:15;30.63;;;21.05;;
48578;SDS011;34357;51.948;6.132;2022-12-07T23:28:45;31.35;;;21.80;;
48578;SDS011;34357;51.948;6.132;2022-12-07T23:31:16;25.83;;;19.98;;
48578;SDS011;34357;51.948;6.132;2022-12-07T23:33:46;30.90;;;20.05;;
48578;SDS011;34357;51.948;6.132;2022-12-07T23:36:16;28.65;;;19.77;;
48578;SDS011;34357;51.948;6.132;2022-12-07T23:39:04;26.25;;;19.95;;
48578;SDS011;34357;51.948;6.132;2022-12-07T23:41:40;29.30;;;19.85;;
48578;SDS011;34357;51.948;6.132;2022-12-07T23:46:51;26.10;;;20.00;;
48578;SDS011;34357;51.948;6.132;2022-12-07T23:49:28;26.08;;;18.70;;
48578;SDS011;34357;51.948;6.132;2022-12-07T23:52:17;27.00;;;19.65;;
48578;SDS011;34357;51.948;6.132;2022-12-07T23:54:44;25.55;;;20.08;;
48578;SDS011;34357;51.948;6.132;2022-12-07T23:57:12;27.23;;;20.25;;
48578;SDS011;34357;51.948;6.132;2022-12-07T23:59:42;25.27;;;19.80;;
